sensor_id;sensor_type;location;lat;lon;timestamp;P1;durP1;ratioP1;P2;durP2;ratioP2
5171;SDS011;2605;49.770;9.868;2022-09-28T00:00:20;4.53;;;4.00;;
5171;SDS011;2605;49.770;9.868;2022-09-28T00:02:46;10.67;;;4.20;;
5171;SDS011;2605;49.770;9.868;2022-09-28T00:05:12;3.23;;;3.03;;
5171;SDS011;2605;49.770;9.868;2022-09-28T00:07:37;6.47;;;3.70;;
5171;SDS011;2605;49.770;9.868;2022-09-28T00:10:03;5.03;;;3.07;;
5171;SDS011;2605;49.770;9.868;2022-09-28T00:12:32;3.60;;;3.30;;
5171;SDS011;2605;49.770;9.868;2022-09-28T00:14:58;2.93;;;2.73;;
5171;SDS011;2605;49.770;9.868;2022-09-28T00:17:23;5.50;;;3.63;;
5171;SDS011;2605;49.770;9.868;2022-09-28T00:19:50;3.20;;;2.77;;
5171;SDS011;2605;49.770;9.868;2022-09-28T00:22:15;2.47;;;2.27;;
5171;SDS011;2605;49.770;9.868;2022-09-28T00:24:41;5.90;;;3.53;;
5171;SDS011;2605;49.770;9.868;2022-09-28T00:27:06;2.30;;;2.20;;
5171;SDS011;2605;49.770;9.868;2022-09-28T00:29:34;2.70;;;2.00;;
5171;SDS011;2605;49.770;9.868;2022-09-28T00:32:02;3.13;;;2.10;;
5171;SDS011;2605;49.770;9.868;2022-09-28T00:34:31;2.20;;;1.83;;
5171;SDS011;2605;49.770;9.868;2022-09-28T00:36:59;1.93;;;1.80;;
5171;SDS011;2605;49.770;9.868;2022-09-28T00:39:26;4.40;;;2.00;;
5171;SDS011;2605;49.770;9.868;2022-09-28T00:41:52;3.60;;;2.50;;
5171;SDS011;2605;49.770;9.868;2022-09-28T00:46:50;2.17;;;2.07;;
5171;SDS011;2605;49.770;9.868;2022-09-28T00:49:20;2.57;;;2.37;;
5171;SDS011;2605;49.770;9.868;2022-09-28T00:51:58;2.80;;;2.60;;
5171;SDS011;2605;49.770;9.868;2022-09-28T00:54:25;1.87;;;1.77;;
5171;SDS011;2605;49.770;9.868;2022-09-28T00:56:50;2.50;;;2.30;;
5171;SDS011;2605;49.770;9.868;2022-09-28T00:59:16;11.73;;;3.07;;
5171;SDS011;2605;49.770;9.868;2022-09-28T01:01:42;2.43;;;2.10;;
5171;SDS011;2605;49.770;9.868;2022-09-28T01:04:08;2.00;;;1.90;;
5171;SDS011;2605;49.770;9.868;2022-09-28T01:06:34;4.17;;;2.27;;
5171;SDS011;2605;49.770;9.868;2022-09-28T01:09:03;2.63;;;2.20;;
5171;SDS011;2605;49.770;9.868;2022-09-28T01:11:31;2.57;;;2.10;;
5171;SDS011;2605;49.770;9.868;2022-09-28T01:13:58;4.20;;;2.20;;
5171;SDS011;2605;49.770;9.868;2022-09-28T01:24:46;3.17;;;2.00;;
5171;SDS011;2605;49.770;9.868;2022-09-28T01:27:27;2.17;;;2.00;;
5171;SDS011;2605;49.770;9.868;2022-09-28T01:30:00;2.73;;;2.30;;
5171;SDS011;2605;49.770;9.868;2022-09-28T01:35:31;3.20;;;2.20;;
5171;SDS011;2605;49.770;9.868;2022-09-28T01:38:24;2.53;;;2.33;;
5171;SDS011;2605;49.770;9.868;2022-09-28T01:40:57;2.37;;;2.27;;
5171;SDS011;2605;49.770;9.868;2022-09-28T01:43:28;3.10;;;2.90;;
5171;SDS011;2605;49.770;9.868;2022-09-28T01:46:01;2.30;;;2.20;;
5171;SDS011;2605;49.770;9.868;2022-09-28T01:48:35;2.70;;;2.60;;
5171;SDS011;2605;49.770;9.868;2022-09-28T01:51:07;2.90;;;2.63;;
5171;SDS011;2605;49.770;9.868;2022-09-28T01:53:42;3.53;;;2.40;;
5171;SDS011;2605;49.770;9.868;2022-09-28T01:56:26;5.23;;;2.30;;
5171;SDS011;2605;49.770;9.868;2022-09-28T01:58:58;2.57;;;2.43;;
5171;SDS011;2605;49.770;9.868;2022-09-28T02:01:47;2.50;;;2.30;;
5171;SDS011;2605;49.770;9.868;2022-09-28T02:04:29;2.60;;;2.40;;
5171;SDS011;2605;49.770;9.868;2022-09-28T02:07:10;2.40;;;2.30;;
5171;SDS011;2605;49.770;9.868;2022-09-28T02:09:45;2.87;;;2.17;;
5171;SDS011;2605;49.770;9.868;2022-09-28T02:12:35;2.80;;;1.87;;
5171;SDS011;2605;49.770;9.868;2022-09-28T02:15:08;2.80;;;2.33;;
5171;SDS011;2605;49.770;9.868;2022-09-28T02:17:47;2.20;;;2.10;;
5171;SDS011;2605;49.770;9.868;2022-09-28T02:20:13;3.37;;;2.37;;
5171;SDS011;2605;49.770;9.868;2022-09-28T02:22:43;3.20;;;2.40;;
5171;SDS011;2605;49.770;9.868;2022-09-28T02:25:25;2.20;;;1.73;;
5171;SDS011;2605;49.770;9.868;2022-09-28T02:27:54;2.70;;;2.30;;
5171;SDS011;2605;49.770;9.868;2022-09-28T02:30:23;3.07;;;2.87;;
5171;SDS011;2605;49.770;9.868;2022-09-28T02:32:49;3.30;;;3.10;;
5171;SDS011;2605;49.770;9.868;2022-09-28T02:35:19;3.10;;;3.00;;
5171;SDS011;2605;49.770;9.868;2022-09-28T02:37:48;3.80;;;3.60;;
5171;SDS011;2605;49.770;9.868;2022-09-28T02:40:21;3.80;;;3.60;;
5171;SDS011;2605;49.770;9.868;2022-09-28T02:43:01;4.00;;;3.73;;
5171;SDS011;2605;49.770;9.868;2022-09-28T02:45:53;4.90;;;4.60;;
5171;SDS011;2605;49.770;9.868;2022-09-28T02:48:27;4.47;;;4.03;;
5171;SDS011;2605;49.770;9.868;2022-09-28T02:51:22;4.90;;;4.60;;
5171;SDS011;2605;49.770;9.868;2022-09-28T02:56:50;4.20;;;4.00;;
5171;SDS011;2605;49.770;9.868;2022-09-28T03:07:28;4.60;;;4.20;;
5171;SDS011;2605;49.770;9.868;2022-09-28T03:10:18;4.30;;;4.10;;
5171;SDS011;2605;49.770;9.868;2022-09-28T03:13:04;3.97;;;3.77;;
5171;SDS011;2605;49.770;9.868;2022-09-28T03:15:31;4.17;;;3.80;;
5171;SDS011;2605;49.770;9.868;2022-09-28T03:17:58;4.33;;;4.03;;
5171;SDS011;2605;49.770;9.868;2022-09-28T03:20:24;3.60;;;3.40;;
5171;SDS011;2605;49.770;9.868;2022-09-28T03:22:51;4.20;;;3.90;;
5171;SDS011;2605;49.770;9.868;2022-09-28T03:25:17;5.10;;;4.67;;
5171;SDS011;2605;49.770;9.868;2022-09-28T03:27:43;4.63;;;4.20;;
5171;SDS011;2605;49.770;9.868;2022-09-28T03:30:11;5.10;;;4.80;;
5171;SDS011;2605;49.770;9.868;2022-09-28T03:32:37;4.13;;;3.93;;
5171;SDS011;2605;49.770;9.868;2022-09-28T03:35:03;5.03;;;3.83;;
5171;SDS011;2605;49.770;9.868;2022-09-28T03:37:29;4.57;;;4.27;;
5171;SDS011;2605;49.770;9.868;2022-09-28T03:39:54;4.70;;;4.40;;
5171;SDS011;2605;49.770;9.868;2022-09-28T03:42:20;5.93;;;5.07;;
5171;SDS011;2605;49.770;9.868;2022-09-28T03:44:45;4.10;;;3.83;;
5171;SDS011;2605;49.770;9.868;2022-09-28T03:47:11;4.80;;;4.40;;
5171;SDS011;2605;49.770;9.868;2022-09-28T03:49:37;3.80;;;3.60;;
5171;SDS011;2605;49.770;9.868;2022-09-28T03:52:03;3.40;;;3.20;;
5171;SDS011;2605;49.770;9.868;2022-09-28T03:54:29;3.57;;;3.37;;
5171;SDS011;2605;49.770;9.868;2022-09-28T03:56:54;4.43;;;3.50;;
5171;SDS011;2605;49.770;9.868;2022-09-28T03:59:20;4.70;;;3.60;;
5171;SDS011;2605;49.770;9.868;2022-09-28T04:01:49;4.67;;;3.20;;
5171;SDS011;2605;49.770;9.868;2022-09-28T04:04:14;3.27;;;3.17;;
5171;SDS011;2605;49.770;9.868;2022-09-28T04:06:40;3.87;;;3.50;;
5171;SDS011;2605;49.770;9.868;2022-09-28T04:09:06;5.80;;;3.73;;
5171;SDS011;2605;49.770;9.868;2022-09-28T04:11:32;4.20;;;3.60;;
5171;SDS011;2605;49.770;9.868;2022-09-28T04:13:57;3.70;;;3.40;;
5171;SDS011;2605;49.770;9.868;2022-09-28T04:16:23;3.93;;;3.50;;
5171;SDS011;2605;49.770;9.868;2022-09-28T04:18:48;3.60;;;3.40;;
5171;SDS011;2605;49.770;9.868;2022-09-28T04:21:15;5.50;;;3.97;;
5171;SDS011;2605;49.770;9.868;2022-09-28T04:23:42;4.40;;;3.47;;
5171;SDS011;2605;49.770;9.868;2022-09-28T04:26:12;4.00;;;3.80;;
5171;SDS011;2605;49.770;9.868;2022-09-28T04:28:44;3.80;;;3.60;;
5171;SDS011;2605;49.770;9.868;2022-09-28T04:31:29;3.73;;;3.50;;
5171;SDS011;2605;49.770;9.868;2022-09-28T04:34:00;3.80;;;3.50;;
5171;SDS011;2605;49.770;9.868;2022-09-28T04:36:26;3.23;;;3.03;;
5171;SDS011;2605;49.770;9.868;2022-09-28T04:38:51;3.57;;;3.37;;
5171;SDS011;2605;49.770;9.868;2022-09-28T04:41:17;3.83;;;3.53;;
5171;SDS011;2605;49.770;9.868;2022-09-28T04:43:45;7.50;;;3.07;;
5171;SDS011;2605;49.770;9.868;2022-09-28T04:46:11;3.77;;;3.40;;
5171;SDS011;2605;49.770;9.868;2022-09-28T04:48:36;3.47;;;3.27;;
5171;SDS011;2605;49.770;9.868;2022-09-28T04:51:02;3.90;;;3.60;;
5171;SDS011;2605;49.770;9.868;2022-09-28T04:53:28;2.53;;;2.33;;
5171;SDS011;2605;49.770;9.868;2022-09-28T04:55:54;3.43;;;3.13;;
5171;SDS011;2605;49.770;9.868;2022-09-28T04:58:21;3.07;;;2.83;;
5171;SDS011;2605;49.770;9.868;2022-09-28T05:00:47;2.33;;;2.23;;
5171;SDS011;2605;49.770;9.868;2022-09-28T05:03:15;3.80;;;2.67;;
5171;SDS011;2605;49.770;9.868;2022-09-28T05:05:44;5.73;;;3.10;;
5171;SDS011;2605;49.770;9.868;2022-09-28T05:08:10;5.00;;;3.17;;
5171;SDS011;2605;49.770;9.868;2022-09-28T05:10:36;2.27;;;2.17;;
5171;SDS011;2605;49.770;9.868;2022-09-28T05:13:04;2.20;;;2.10;;
5171;SDS011;2605;49.770;9.868;2022-09-28T05:15:30;2.50;;;2.30;;
5171;SDS011;2605;49.770;9.868;2022-09-28T05:17:57;3.13;;;2.90;;
5171;SDS011;2605;49.770;9.868;2022-09-28T05:20:23;1.83;;;1.73;;
5171;SDS011;2605;49.770;9.868;2022-09-28T05:22:48;2.97;;;2.70;;
5171;SDS011;2605;49.770;9.868;2022-09-28T05:25:14;3.40;;;3.20;;
5171;SDS011;2605;49.770;9.868;2022-09-28T05:27:39;2.97;;;2.87;;
5171;SDS011;2605;49.770;9.868;2022-09-28T05:30:05;3.20;;;3.10;;
5171;SDS011;2605;49.770;9.868;2022-09-28T05:32:31;3.13;;;3.03;;
5171;SDS011;2605;49.770;9.868;2022-09-28T05:34:56;3.60;;;3.33;;
5171;SDS011;2605;49.770;9.868;2022-09-28T05:37:25;3.63;;;3.43;;
5171;SDS011;2605;49.770;9.868;2022-09-28T05:39:50;4.00;;;3.90;;
5171;SDS011;2605;49.770;9.868;2022-09-28T05:42:16;4.13;;;3.97;;
5171;SDS011;2605;49.770;9.868;2022-09-28T05:44:41;7.23;;;3.83;;
5171;SDS011;2605;49.770;9.868;2022-09-28T05:47:07;4.43;;;4.23;;
5171;SDS011;2605;49.770;9.868;2022-09-28T05:49:32;3.50;;;3.30;;
5171;SDS011;2605;49.770;9.868;2022-09-28T05:51:58;3.80;;;3.60;;
5171;SDS011;2605;49.770;9.868;2022-09-28T05:54:23;3.20;;;3.10;;
5171;SDS011;2605;49.770;9.868;2022-09-28T05:56:49;3.47;;;3.37;;
5171;SDS011;2605;49.770;9.868;2022-09-28T05:59:14;3.00;;;2.90;;
5171;SDS011;2605;49.770;9.868;2022-09-28T06:01:40;2.83;;;2.63;;
5171;SDS011;2605;49.770;9.868;2022-09-28T06:04:06;3.97;;;2.90;;
5171;SDS011;2605;49.770;9.868;2022-09-28T06:06:33;3.23;;;3.10;;
5171;SDS011;2605;49.770;9.868;2022-09-28T06:08:59;3.53;;;3.30;;
5171;SDS011;2605;49.770;9.868;2022-09-28T06:11:25;3.30;;;3.20;;
5171;SDS011;2605;49.770;9.868;2022-09-28T06:13:52;2.80;;;2.70;;
5171;SDS011;2605;49.770;9.868;2022-09-28T06:16:19;3.03;;;2.93;;
5171;SDS011;2605;49.770;9.868;2022-09-28T06:18:44;2.87;;;2.77;;
5171;SDS011;2605;49.770;9.868;2022-09-28T06:21:11;3.13;;;2.80;;
5171;SDS011;2605;49.770;9.868;2022-09-28T06:23:37;4.20;;;3.50;;
5171;SDS011;2605;49.770;9.868;2022-09-28T06:26:03;2.80;;;2.70;;
5171;SDS011;2605;49.770;9.868;2022-09-28T06:28:28;3.67;;;3.30;;
5171;SDS011;2605;49.770;9.868;2022-09-28T06:30:54;3.50;;;3.20;;
5171;SDS011;2605;49.770;9.868;2022-09-28T06:33:19;4.10;;;2.70;;
5171;SDS011;2605;49.770;9.868;2022-09-28T06:35:45;3.73;;;2.37;;
5171;SDS011;2605;49.770;9.868;2022-09-28T06:38:14;2.70;;;2.60;;
5171;SDS011;2605;49.770;9.868;2022-09-28T06:40:40;2.67;;;2.37;;
5171;SDS011;2605;49.770;9.868;2022-09-28T06:43:06;2.20;;;2.10;;
5171;SDS011;2605;49.770;9.868;2022-09-28T06:45:35;3.17;;;2.90;;
5171;SDS011;2605;49.770;9.868;2022-09-28T06:48:01;2.50;;;2.40;;
5171;SDS011;2605;49.770;9.868;2022-09-28T06:50:29;2.37;;;2.27;;
5171;SDS011;2605;49.770;9.868;2022-09-28T06:52:59;4.17;;;2.40;;
5171;SDS011;2605;49.770;9.868;2022-09-28T06:55:25;2.00;;;1.80;;
5171;SDS011;2605;49.770;9.868;2022-09-28T06:57:58;2.10;;;2.00;;
5171;SDS011;2605;49.770;9.868;2022-09-28T07:00:29;2.47;;;2.00;;
5171;SDS011;2605;49.770;9.868;2022-09-28T07:03:00;2.60;;;2.00;;
5171;SDS011;2605;49.770;9.868;2022-09-28T07:05:26;2.20;;;1.97;;
5171;SDS011;2605;49.770;9.868;2022-09-28T07:07:56;1.50;;;1.50;;
5171;SDS011;2605;49.770;9.868;2022-09-28T07:10:22;1.50;;;1.50;;
5171;SDS011;2605;49.770;9.868;2022-09-28T07:12:50;1.60;;;1.50;;
5171;SDS011;2605;49.770;9.868;2022-09-28T07:15:16;1.50;;;1.40;;
5171;SDS011;2605;49.770;9.868;2022-09-28T07:17:41;1.90;;;1.80;;
5171;SDS011;2605;49.770;9.868;2022-09-28T07:20:07;1.83;;;1.00;;
5171;SDS011;2605;49.770;9.868;2022-09-28T07:22:33;1.77;;;1.67;;
5171;SDS011;2605;49.770;9.868;2022-09-28T07:24:58;2.13;;;2.03;;
5171;SDS011;2605;49.770;9.868;2022-09-28T07:27:24;1.93;;;1.83;;
5171;SDS011;2605;49.770;9.868;2022-09-28T07:29:50;2.10;;;2.00;;
5171;SDS011;2605;49.770;9.868;2022-09-28T07:32:17;1.70;;;1.70;;
5171;SDS011;2605;49.770;9.868;2022-09-28T07:34:46;2.63;;;2.53;;
5171;SDS011;2605;49.770;9.868;2022-09-28T07:37:12;2.27;;;2.07;;
5171;SDS011;2605;49.770;9.868;2022-09-28T07:39:39;2.50;;;2.40;;
5171;SDS011;2605;49.770;9.868;2022-09-28T07:42:28;2.20;;;2.10;;
5171;SDS011;2605;49.770;9.868;2022-09-28T07:44:57;2.20;;;2.10;;
5171;SDS011;2605;49.770;9.868;2022-09-28T07:47:23;2.97;;;2.23;;
5171;SDS011;2605;49.770;9.868;2022-09-28T07:49:52;2.60;;;2.40;;
5171;SDS011;2605;49.770;9.868;2022-09-28T07:52:20;2.23;;;2.07;;
5171;SDS011;2605;49.770;9.868;2022-09-28T07:54:50;1.40;;;1.30;;
5171;SDS011;2605;49.770;9.868;2022-09-28T07:57:18;2.30;;;1.57;;
5171;SDS011;2605;49.770;9.868;2022-09-28T07:59:47;1.90;;;1.80;;
5171;SDS011;2605;49.770;9.868;2022-09-28T08:02:14;1.80;;;1.70;;
5171;SDS011;2605;49.770;9.868;2022-09-28T08:04:40;1.40;;;1.30;;
5171;SDS011;2605;49.770;9.868;2022-09-28T08:07:09;1.33;;;1.33;;
5171;SDS011;2605;49.770;9.868;2022-09-28T08:09:35;1.53;;;1.03;;
5171;SDS011;2605;49.770;9.868;2022-09-28T08:12:02;1.20;;;1.20;;
5171;SDS011;2605;49.770;9.868;2022-09-28T08:14:29;1.30;;;1.20;;
5171;SDS011;2605;49.770;9.868;2022-09-28T08:17:01;1.60;;;1.50;;
5171;SDS011;2605;49.770;9.868;2022-09-28T08:19:28;4.30;;;1.30;;
5171;SDS011;2605;49.770;9.868;2022-09-28T08:22:19;2.30;;;1.30;;
5171;SDS011;2605;49.770;9.868;2022-09-28T08:24:45;1.37;;;1.27;;
5171;SDS011;2605;49.770;9.868;2022-09-28T08:27:11;1.93;;;1.83;;
5171;SDS011;2605;49.770;9.868;2022-09-28T08:29:38;1.10;;;1.10;;
5171;SDS011;2605;49.770;9.868;2022-09-28T08:32:04;1.33;;;1.23;;
5171;SDS011;2605;49.770;9.868;2022-09-28T08:34:32;1.00;;;1.00;;
5171;SDS011;2605;49.770;9.868;2022-09-28T08:37:01;1.20;;;1.10;;
5171;SDS011;2605;49.770;9.868;2022-09-28T08:39:27;2.17;;;1.23;;
5171;SDS011;2605;49.770;9.868;2022-09-28T08:44:30;3.57;;;1.10;;
5171;SDS011;2605;49.770;9.868;2022-09-28T08:47:05;1.10;;;1.10;;
5171;SDS011;2605;49.770;9.868;2022-09-28T08:49:56;1.57;;;1.17;;
5171;SDS011;2605;49.770;9.868;2022-09-28T08:52:25;2.93;;;1.40;;
5171;SDS011;2605;49.770;9.868;2022-09-28T08:55:04;1.00;;;1.00;;
5171;SDS011;2605;49.770;9.868;2022-09-28T08:57:45;2.80;;;1.80;;
5171;SDS011;2605;49.770;9.868;2022-09-28T09:00:18;1.47;;;1.17;;
5171;SDS011;2605;49.770;9.868;2022-09-28T09:02:46;1.10;;;1.00;;
5171;SDS011;2605;49.770;9.868;2022-09-28T09:05:13;1.83;;;1.33;;
5171;SDS011;2605;49.770;9.868;2022-09-28T09:10:34;1.40;;;1.30;;
5171;SDS011;2605;49.770;9.868;2022-09-28T09:16:28;3.23;;;1.77;;
5171;SDS011;2605;49.770;9.868;2022-09-28T09:19:11;1.37;;;1.20;;
5171;SDS011;2605;49.770;9.868;2022-09-28T09:21:53;1.57;;;1.47;;
5171;SDS011;2605;49.770;9.868;2022-09-28T09:24:25;2.17;;;1.30;;
5171;SDS011;2605;49.770;9.868;2022-09-28T09:27:03;1.30;;;1.20;;
5171;SDS011;2605;49.770;9.868;2022-09-28T09:32:34;2.03;;;1.50;;
5171;SDS011;2605;49.770;9.868;2022-09-28T09:35:45;3.07;;;1.23;;
5171;SDS011;2605;49.770;9.868;2022-09-28T09:38:34;1.67;;;1.60;;
5171;SDS011;2605;49.770;9.868;2022-09-28T09:47:06;1.60;;;1.50;;
5171;SDS011;2605;49.770;9.868;2022-09-28T09:49:37;1.20;;;1.20;;
5171;SDS011;2605;49.770;9.868;2022-09-28T09:52:11;2.10;;;1.20;;
5171;SDS011;2605;49.770;9.868;2022-09-28T09:55:04;3.37;;;1.80;;
5171;SDS011;2605;49.770;9.868;2022-09-28T10:00:46;3.00;;;1.50;;
5171;SDS011;2605;49.770;9.868;2022-09-28T10:03:22;1.53;;;1.00;;
5171;SDS011;2605;49.770;9.868;2022-09-28T10:05:54;1.50;;;1.40;;
5171;SDS011;2605;49.770;9.868;2022-09-28T10:08:24;1.50;;;1.37;;
5171;SDS011;2605;49.770;9.868;2022-09-28T10:10:53;2.20;;;1.30;;
5171;SDS011;2605;49.770;9.868;2022-09-28T10:13:31;1.33;;;1.23;;
5171;SDS011;2605;49.770;9.868;2022-09-28T10:15:57;2.63;;;1.17;;
5171;SDS011;2605;49.770;9.868;2022-09-28T10:18:23;1.60;;;1.50;;
5171;SDS011;2605;49.770;9.868;2022-09-28T10:20:50;1.20;;;1.10;;
5171;SDS011;2605;49.770;9.868;2022-09-28T10:23:20;1.30;;;1.20;;
5171;SDS011;2605;49.770;9.868;2022-09-28T10:27:19;1.20;;;1.10;;
5171;SDS011;2605;49.770;9.868;2022-09-28T10:29:59;1.63;;;1.20;;
5171;SDS011;2605;49.770;9.868;2022-09-28T10:34:14;1.07;;;0.97;;
5171;SDS011;2605;49.770;9.868;2022-09-28T10:39:31;1.27;;;1.13;;
5171;SDS011;2605;49.770;9.868;2022-09-28T10:43:21;2.17;;;1.27;;
5171;SDS011;2605;49.770;9.868;2022-09-28T10:45:48;3.53;;;0.90;;
5171;SDS011;2605;49.770;9.868;2022-09-28T10:48:50;1.77;;;1.10;;
5171;SDS011;2605;49.770;9.868;2022-09-28T10:56:47;1.63;;;1.10;;
5171;SDS011;2605;49.770;9.868;2022-09-28T11:01:54;0.90;;;0.90;;
5171;SDS011;2605;49.770;9.868;2022-09-28T11:04:25;1.13;;;1.03;;
5171;SDS011;2605;49.770;9.868;2022-09-28T11:07:02;2.60;;;1.40;;
5171;SDS011;2605;49.770;9.868;2022-09-28T11:09:31;1.23;;;1.07;;
5171;SDS011;2605;49.770;9.868;2022-09-28T11:11:58;0.80;;;0.80;;
5171;SDS011;2605;49.770;9.868;2022-09-28T11:14:36;0.77;;;0.77;;
5171;SDS011;2605;49.770;9.868;2022-09-28T11:17:17;1.37;;;1.13;;
5171;SDS011;2605;49.770;9.868;2022-09-28T11:19:57;1.83;;;1.00;;
5171;SDS011;2605;49.770;9.868;2022-09-28T11:22:35;0.77;;;0.77;;
5171;SDS011;2605;49.770;9.868;2022-09-28T11:25:15;1.23;;;1.13;;
5171;SDS011;2605;49.770;9.868;2022-09-28T11:30:20;0.80;;;0.80;;
5171;SDS011;2605;49.770;9.868;2022-09-28T11:33:06;0.70;;;0.70;;
5171;SDS011;2605;49.770;9.868;2022-09-28T11:38:31;1.30;;;1.20;;
5171;SDS011;2605;49.770;9.868;2022-09-28T11:44:33;1.13;;;1.03;;
5171;SDS011;2605;49.770;9.868;2022-09-28T11:49:36;0.93;;;0.90;;
5171;SDS011;2605;49.770;9.868;2022-09-28T11:52:21;1.67;;;1.00;;
5171;SDS011;2605;49.770;9.868;2022-09-28T11:55:02;1.03;;;1.03;;
5171;SDS011;2605;49.770;9.868;2022-09-28T11:57:44;1.40;;;1.30;;
5171;SDS011;2605;49.770;9.868;2022-09-28T12:00:14;1.57;;;1.10;;
5171;SDS011;2605;49.770;9.868;2022-09-28T12:02:47;1.73;;;1.30;;
5171;SDS011;2605;49.770;9.868;2022-09-28T12:05:27;1.00;;;1.00;;
5171;SDS011;2605;49.770;9.868;2022-09-28T12:13:44;2.20;;;1.03;;
5171;SDS011;2605;49.770;9.868;2022-09-28T12:16:25;1.20;;;1.00;;
5171;SDS011;2605;49.770;9.868;2022-09-28T12:18:56;1.10;;;0.90;;
5171;SDS011;2605;49.770;9.868;2022-09-28T12:21:33;1.00;;;1.00;;
5171;SDS011;2605;49.770;9.868;2022-09-28T12:24:15;4.60;;;1.63;;
5171;SDS011;2605;49.770;9.868;2022-09-28T12:29:52;1.00;;;0.93;;
5171;SDS011;2605;49.770;9.868;2022-09-28T12:43:43;0.80;;;0.80;;
5171;SDS011;2605;49.770;9.868;2022-09-28T12:46:48;1.20;;;1.07;;
5171;SDS011;2605;49.770;9.868;2022-09-28T12:49:42;0.93;;;0.90;;
5171;SDS011;2605;49.770;9.868;2022-09-28T12:52:26;5.73;;;0.90;;
5171;SDS011;2605;49.770;9.868;2022-09-28T13:00:30;1.40;;;1.13;;
5171;SDS011;2605;49.770;9.868;2022-09-28T13:06:21;2.03;;;1.20;;
5171;SDS011;2605;49.770;9.868;2022-09-28T13:09:08;1.10;;;1.00;;
5171;SDS011;2605;49.770;9.868;2022-09-28T13:23:03;1.43;;;0.90;;
5171;SDS011;2605;49.770;9.868;2022-09-28T13:25:34;4.50;;;1.00;;
5171;SDS011;2605;49.770;9.868;2022-09-28T13:28:04;0.90;;;0.90;;
5171;SDS011;2605;49.770;9.868;2022-09-28T13:30:31;1.67;;;1.20;;
5171;SDS011;2605;49.770;9.868;2022-09-28T13:32:59;2.20;;;1.40;;
5171;SDS011;2605;49.770;9.868;2022-09-28T13:35:28;1.77;;;1.20;;
5171;SDS011;2605;49.770;9.868;2022-09-28T13:46:17;1.00;;;1.00;;
5171;SDS011;2605;49.770;9.868;2022-09-28T13:51:30;1.00;;;1.00;;
5171;SDS011;2605;49.770;9.868;2022-09-28T13:54:14;1.07;;;1.00;;
5171;SDS011;2605;49.770;9.868;2022-09-28T13:59:25;1.53;;;0.90;;
5171;SDS011;2605;49.770;9.868;2022-09-28T14:01:55;1.67;;;1.00;;
5171;SDS011;2605;49.770;9.868;2022-09-28T14:04:53;1.30;;;1.00;;
5171;SDS011;2605;49.770;9.868;2022-09-28T14:07:54;2.27;;;1.20;;
5171;SDS011;2605;49.770;9.868;2022-09-28T14:16:30;5.73;;;1.60;;
5171;SDS011;2605;49.770;9.868;2022-09-28T14:19:02;5.10;;;0.87;;
5171;SDS011;2605;49.770;9.868;2022-09-28T14:32:35;1.43;;;1.33;;
5171;SDS011;2605;49.770;9.868;2022-09-28T14:35:13;2.60;;;1.00;;
5171;SDS011;2605;49.770;9.868;2022-09-28T14:37:51;1.07;;;0.90;;
5171;SDS011;2605;49.770;9.868;2022-09-28T14:48:51;2.03;;;1.30;;
5171;SDS011;2605;49.770;9.868;2022-09-28T14:56:43;2.50;;;1.20;;
5171;SDS011;2605;49.770;9.868;2022-09-28T14:59:11;1.70;;;1.60;;
5171;SDS011;2605;49.770;9.868;2022-09-28T15:01:42;1.10;;;1.00;;
5171;SDS011;2605;49.770;9.868;2022-09-28T15:04:12;1.30;;;1.10;;
5171;SDS011;2605;49.770;9.868;2022-09-28T15:06:48;1.17;;;1.17;;
5171;SDS011;2605;49.770;9.868;2022-09-28T15:09:27;1.80;;;1.30;;
5171;SDS011;2605;49.770;9.868;2022-09-28T15:12:36;4.27;;;1.30;;
5171;SDS011;2605;49.770;9.868;2022-09-28T15:15:05;2.50;;;1.20;;
5171;SDS011;2605;49.770;9.868;2022-09-28T15:17:44;2.53;;;1.90;;
5171;SDS011;2605;49.770;9.868;2022-09-28T15:20:22;1.90;;;1.20;;
5171;SDS011;2605;49.770;9.868;2022-09-28T15:22:50;1.33;;;1.20;;
5171;SDS011;2605;49.770;9.868;2022-09-28T15:25:21;1.77;;;1.40;;
5171;SDS011;2605;49.770;9.868;2022-09-28T15:27:56;1.30;;;1.20;;
5171;SDS011;2605;49.770;9.868;2022-09-28T15:30:32;1.00;;;0.90;;
5171;SDS011;2605;49.770;9.868;2022-09-28T15:33:01;1.40;;;1.30;;
5171;SDS011;2605;49.770;9.868;2022-09-28T15:35:48;1.50;;;1.40;;
5171;SDS011;2605;49.770;9.868;2022-09-28T15:38:29;3.23;;;1.07;;
5171;SDS011;2605;49.770;9.868;2022-09-28T15:41:02;1.80;;;1.23;;
5171;SDS011;2605;49.770;9.868;2022-09-28T15:43:30;0.90;;;0.90;;
5171;SDS011;2605;49.770;9.868;2022-09-28T15:46:11;1.10;;;1.00;;
5171;SDS011;2605;49.770;9.868;2022-09-28T15:51:28;1.33;;;0.90;;
5171;SDS011;2605;49.770;9.868;2022-09-28T15:54:15;2.73;;;1.07;;
5171;SDS011;2605;49.770;9.868;2022-09-28T15:56:50;1.37;;;1.27;;
5171;SDS011;2605;49.770;9.868;2022-09-28T16:07:22;1.30;;;1.20;;
5171;SDS011;2605;49.770;9.868;2022-09-28T16:12:42;1.33;;;1.23;;
5171;SDS011;2605;49.770;9.868;2022-09-28T16:15:20;1.80;;;0.90;;
5171;SDS011;2605;49.770;9.868;2022-09-28T16:17:51;1.00;;;1.00;;
5171;SDS011;2605;49.770;9.868;2022-09-28T16:20:30;1.10;;;1.00;;
5171;SDS011;2605;49.770;9.868;2022-09-28T16:23:00;3.00;;;1.53;;
5171;SDS011;2605;49.770;9.868;2022-09-28T16:25:33;1.10;;;1.00;;
5171;SDS011;2605;49.770;9.868;2022-09-28T16:28:01;1.73;;;1.60;;
5171;SDS011;2605;49.770;9.868;2022-09-28T16:30:28;1.73;;;1.10;;
5171;SDS011;2605;49.770;9.868;2022-09-28T16:32:57;1.53;;;1.30;;
5171;SDS011;2605;49.770;9.868;2022-09-28T16:35:47;1.40;;;1.30;;
5171;SDS011;2605;49.770;9.868;2022-09-28T16:38:15;2.90;;;1.40;;
5171;SDS011;2605;49.770;9.868;2022-09-28T16:40:43;1.57;;;1.47;;
5171;SDS011;2605;49.770;9.868;2022-09-28T16:43:19;3.27;;;1.10;;
5171;SDS011;2605;49.770;9.868;2022-09-28T16:45:49;1.20;;;1.10;;
5171;SDS011;2605;49.770;9.868;2022-09-28T16:48:14;1.27;;;1.10;;
5171;SDS011;2605;49.770;9.868;2022-09-28T16:50:43;1.30;;;1.20;;
5171;SDS011;2605;49.770;9.868;2022-09-28T16:53:11;2.30;;;1.40;;
5171;SDS011;2605;49.770;9.868;2022-09-28T16:55:57;1.37;;;1.27;;
5171;SDS011;2605;49.770;9.868;2022-09-28T16:58:23;2.57;;;1.20;;
5171;SDS011;2605;49.770;9.868;2022-09-28T17:00:49;1.60;;;1.50;;
5171;SDS011;2605;49.770;9.868;2022-09-28T17:03:16;2.37;;;1.23;;
5171;SDS011;2605;49.770;9.868;2022-09-28T17:05:44;5.13;;;1.40;;
5171;SDS011;2605;49.770;9.868;2022-09-28T17:08:12;0.90;;;0.90;;
5171;SDS011;2605;49.770;9.868;2022-09-28T17:13:21;1.27;;;1.17;;
5171;SDS011;2605;49.770;9.868;2022-09-28T17:15:47;1.40;;;1.30;;
5171;SDS011;2605;49.770;9.868;2022-09-28T17:18:14;1.13;;;1.07;;
5171;SDS011;2605;49.770;9.868;2022-09-28T17:20:41;1.67;;;1.40;;
5171;SDS011;2605;49.770;9.868;2022-09-28T17:23:09;1.30;;;1.20;;
5171;SDS011;2605;49.770;9.868;2022-09-28T17:25:35;1.47;;;1.30;;
5171;SDS011;2605;49.770;9.868;2022-09-28T17:28:01;2.27;;;1.70;;
5171;SDS011;2605;49.770;9.868;2022-09-28T17:30:27;2.03;;;1.93;;
5171;SDS011;2605;49.770;9.868;2022-09-28T17:32:54;1.60;;;1.50;;
5171;SDS011;2605;49.770;9.868;2022-09-28T17:35:19;2.27;;;1.60;;
5171;SDS011;2605;49.770;9.868;2022-09-28T17:37:45;3.17;;;1.80;;
5171;SDS011;2605;49.770;9.868;2022-09-28T17:40:21;5.63;;;2.30;;
5171;SDS011;2605;49.770;9.868;2022-09-28T17:42:49;2.37;;;2.23;;
5171;SDS011;2605;49.770;9.868;2022-09-28T17:45:15;1.90;;;1.80;;
5171;SDS011;2605;49.770;9.868;2022-09-28T17:47:42;2.63;;;1.73;;
5171;SDS011;2605;49.770;9.868;2022-09-28T17:52:45;2.00;;;1.90;;
5171;SDS011;2605;49.770;9.868;2022-09-28T17:55:11;2.63;;;1.63;;
5171;SDS011;2605;49.770;9.868;2022-09-28T17:57:36;2.40;;;1.93;;
5171;SDS011;2605;49.770;9.868;2022-09-28T18:00:02;2.10;;;1.87;;
5171;SDS011;2605;49.770;9.868;2022-09-28T18:02:28;3.23;;;2.17;;
5171;SDS011;2605;49.770;9.868;2022-09-28T18:04:53;2.37;;;2.20;;
5171;SDS011;2605;49.770;9.868;2022-09-28T18:07:19;6.03;;;2.63;;
5171;SDS011;2605;49.770;9.868;2022-09-28T18:09:44;4.00;;;2.67;;
5171;SDS011;2605;49.770;9.868;2022-09-28T18:12:10;3.40;;;2.80;;
5171;SDS011;2605;49.770;9.868;2022-09-28T18:14:35;3.50;;;3.20;;
5171;SDS011;2605;49.770;9.868;2022-09-28T18:17:03;3.17;;;2.73;;
5171;SDS011;2605;49.770;9.868;2022-09-28T18:19:29;2.43;;;2.23;;
5171;SDS011;2605;49.770;9.868;2022-09-28T18:21:55;5.43;;;2.73;;
5171;SDS011;2605;49.770;9.868;2022-09-28T18:24:22;4.97;;;2.70;;
5171;SDS011;2605;49.770;9.868;2022-09-28T18:26:47;5.00;;;3.00;;
5171;SDS011;2605;49.770;9.868;2022-09-28T18:29:13;3.67;;;2.67;;
5171;SDS011;2605;49.770;9.868;2022-09-28T18:31:41;4.60;;;2.53;;
5171;SDS011;2605;49.770;9.868;2022-09-28T18:34:06;2.97;;;2.77;;